Time;durP1;ratioP1;P1;durP2;ratioP2;P2;SDS_P1;SDS_P2;PMS_P1;PMS_P2;Temp;Humidity;BMP_temperature;BMP_pressure;BME280_temperature;BME280_humidity;BME280_pressure;Samples;Min_cycle;Max_cycle;Signal;HPM_P1;HPM_P2
2023/01/08 00:01:19;;;;;;;5.53;2.47;;;;;;;11.74;68.61;100306.53;5108293;28;20132;-70
2023/01/08 00:03:47;;;;;;;2.30;1.83;;;;;;;11.74;68.58;100298.44;5108701;28;20108;-71
2023/01/08 00:06:18;;;;;;;3.83;2.25;;;;;;;11.72;68.48;100297.88;5104948;28;20044;-71
2023/01/08 00:08:46;;;;;;;3.95;1.90;;;;;;;11.72;68.26;100305.94;5105303;28;20044;-70
2023/01/08 00:11:14;;;;;;;3.53;1.83;;;;;;;11.72;68.60;100311.34;5097975;28;20043;-70
2023/01/08 00:13:43;;;;;;;4.00;1.67;;;;;;;11.71;68.50;100306.19;5098296;28;20044;-70
2023/01/08 00:16:15;;;;;;;6.93;2.10;;;;;;;11.71;68.32;100300.81;5105195;28;20059;-70
2023/01/08 00:18:45;;;;;;;5.43;2.30;;;;;;;11.70;68.46;100308.06;5101509;28;20048;-70
2023/01/08 00:21:13;;;;;;;3.58;1.50;;;;;;;11.70;68.51;100309.94;5099467;28;20052;-69
2023/01/08 00:23:41;;;;;;;2.55;1.70;;;;;;;11.70;68.24;100307.25;5104029;28;20056;-69
2023/01/08 00:26:10;;;;;;;4.05;1.80;;;;;;;11.70;68.49;100309.94;5105822;28;20054;-70
2023/01/08 00:28:39;;;;;;;5.75;2.40;;;;;;;11.70;68.27;100307.25;5103656;28;20048;-70
2023/01/08 00:31:08;;;;;;;4.75;1.88;;;;;;;11.67;68.64;100300.47;5104505;28;20082;-70
2023/01/08 00:33:37;;;;;;;2.58;1.73;;;;;;;11.70;68.42;100301.88;5102272;28;20060;-70
2023/01/08 00:36:09;;;;;;;4.93;1.77;;;;;;;11.69;68.46;100290.28;5105514;28;20541;-70
2023/01/08 00:38:37;;;;;;;3.08;1.85;;;;;;;11.69;68.57;100292.97;5105403;28;20059;-70
2023/01/08 00:41:05;;;;;;;2.65;1.80;;;;;;;11.68;68.31;100288.66;5103342;28;20040;-70
2023/01/08 00:43:33;;;;;;;3.42;1.48;;;;;;;11.68;68.40;100285.16;5102683;28;20079;-70
2023/01/08 00:46:01;;;;;;;3.33;1.60;;;;;;;11.68;68.40;100275.19;5104129;28;20089;-70
2023/01/08 00:48:29;;;;;;;4.03;1.73;;;;;;;11.69;68.43;100274.13;5114239;28;20064;-70
2023/01/08 00:50:57;;;;;;;4.03;2.20;;;;;;;11.67;68.33;100273.56;5106633;28;20151;-70
2023/01/08 00:53:26;;;;;;;3.65;2.08;;;;;;;11.67;68.71;100270.06;5109223;28;20072;-70
2023/01/08 00:56:00;;;;;;;4.18;2.08;;;;;;;11.67;68.76;100268.19;5103100;28;20052;-70
2023/01/08 00:58:28;;;;;;;5.13;2.05;;;;;;;11.68;68.83;100269.00;5103543;28;20040;-70
2023/01/08 01:00:56;;;;;;;4.53;1.80;;;;;;;11.64;68.68;100260.59;5098622;28;20059;-68
2023/01/08 01:03:24;;;;;;;3.08;1.70;;;;;;;11.68;68.60;100264.44;5110433;28;20058;-70
2023/01/08 01:06:00;;;;;;;3.80;1.95;;;;;;;11.67;68.58;100261.97;5115238;28;20123;-71
2023/01/08 01:08:29;;;;;;;2.78;1.67;;;;;;;11.67;68.80;100256.59;5102983;28;20083;-70
2023/01/08 01:10:57;;;;;;;4.25;1.63;;;;;;;11.68;68.64;100256.34;5102703;28;20046;-70
2023/01/08 01:13:25;;;;;;;3.13;1.60;;;;;;;11.67;68.85;100252.03;5106234;28;20044;-69
2023/01/08 01:16:00;;;;;;;4.20;2.08;;;;;;;11.67;68.41;100252.03;5101694;28;20386;-69
2023/01/08 01:18:28;;;;;;;3.30;1.80;;;;;;;11.68;68.52;100253.66;5103233;28;20576;-70
2023/01/08 01:20:55;;;;;;;3.80;1.92;;;;;;;11.67;68.39;100252.03;5102715;28;20209;-70
2023/01/08 01:23:23;;;;;;;6.28;1.95;;;;;;;11.66;68.59;100242.31;5104147;28;20056;-70
2023/01/08 01:25:53;;;;;;;6.43;1.90;;;;;;;11.66;68.67;100233.44;5104072;28;20059;-70
2023/01/08 01:28:21;;;;;;;4.35;1.95;;;;;;;11.64;68.38;100224.78;5102103;28;20112;-71
2023/01/08 01:30:53;;;;;;;2.47;1.77;;;;;;;11.65;68.62;100231.78;5103511;28;20049;-70
2023/01/08 01:33:21;;;;;;;3.40;1.90;;;;;;;11.65;68.83;100237.19;5097950;28;21229;-70
2023/01/08 01:35:49;;;;;;;2.53;1.75;;;;;;;11.63;68.42;100240.13;5104588;28;20071;-70
2023/01/08 01:38:17;;;;;;;8.40;2.47;;;;;;;11.62;68.98;100246.56;5102250;28;20054;-70
2023/01/08 01:40:44;;;;;;;4.50;2.30;;;;;;;11.62;68.82;100260.00;5103866;28;20036;-65
2023/01/08 01:43:14;;;;;;;3.83;1.90;;;;;;;11.62;68.87;100267.28;5102450;28;20067;-70
2023/01/08 01:45:42;;;;;;;5.75;1.92;;;;;;;11.61;68.72;100279.09;5101397;28;20080;-71
2023/01/08 01:48:13;;;;;;;4.30;1.92;;;;;;;11.60;68.88;100280.97;5105587;28;20171;-69
2023/01/08 01:50:44;;;;;;;4.00;1.88;;;;;;;11.58;68.77;100277.69;5107031;28;20131;-69
2023/01/08 01:53:16;;;;;;;5.75;2.83;;;;;;;11.58;68.62;100290.34;5100379;28;20054;-69
2023/01/08 01:55:44;;;;;;;3.42;1.50;;;;;;;11.56;68.76;100297.84;5100569;28;20134;-69
2023/01/08 01:58:16;;;;;;;5.95;2.00;;;;;;;11.55;68.96;100294.34;5103293;28;20516;-64
2023/01/08 02:00:44;;;;;;;3.05;1.52;;;;;;;11.53;69.13;100298.31;5100908;28;20044;-67
2023/01/08 02:03:14;;;;;;;4.75;1.73;;;;;;;11.52;68.73;100284.06;5099193;28;20335;-70
2023/01/08 02:05:56;;;;;;;3.47;1.60;;;;;;;11.51;68.88;100279.72;5112596;28;20086;-69
2023/01/08 02:08:33;;;;;;;4.40;1.60;;;;;;;11.49;68.83;100281.84;5100926;28;20078;-69
2023/01/08 02:11:09;;;;;;;3.72;1.35;;;;;;;11.47;68.86;100275.88;5102016;28;20067;-68
2023/01/08 02:13:42;;;;;;;2.85;1.45;;;;;;;11.48;68.93;100264.06;5101986;28;20047;-69
2023/01/08 02:16:15;;;;;;;3.42;1.52;;;;;;;11.48;68.80;100265.94;5101324;28;20055;-69
2023/01/08 02:18:47;;;;;;;2.35;1.27;;;;;;;11.48;69.13;100266.75;5109895;28;20056;-69
2023/01/08 02:21:21;;;;;;;3.50;1.70;;;;;;;11.47;69.00;100262.44;5111754;28;20051;-69
2023/01/08 02:23:57;;;;;;;4.30;1.55;;;;;;;11.48;68.70;100247.91;5099426;28;20050;-69
2023/01/08 02:26:30;;;;;;;3.67;1.35;;;;;;;11.48;69.08;100250.63;5100325;28;20054;-69
2023/01/08 02:29:01;;;;;;;2.75;1.13;;;;;;;11.48;68.83;100258.69;5101713;28;20056;-68
2023/01/08 02:31:31;;;;;;;3.47;1.65;;;;;;;11.47;68.79;100250.84;5097123;28;20048;-69
2023/01/08 02:33:59;;;;;;;4.43;1.23;;;;;;;11.45;68.85;100234.94;5093467;28;20059;-70
2023/01/08 02:36:34;;;;;;;2.38;1.10;;;;;;;11.45;69.07;100242.22;5102393;28;20044;-69
2023/01/08 02:39:20;;;;;;;1.95;1.13;;;;;;;11.44;68.80;100229.81;5101499;28;20080;-69
2023/01/08 02:42:06;;;;;;;3.67;1.15;;;;;;;11.44;69.00;100227.94;5103194;28;20055;-70
2023/01/08 02:44:47;;;;;;;2.60;0.70;;;;;;;11.45;68.98;100221.50;5096220;28;20060;-69
2023/01/08 02:47:22;;;;;;;2.42;0.95;;;;;;;11.43;68.80;100231.69;5102324;28;20052;-69
2023/01/08 02:49:55;;;;;;;3.25;1.23;;;;;;;11.41;68.97;100229.25;5102362;28;20127;-70
2023/01/08 02:52:27;;;;;;;2.45;1.00;;;;;;;11.39;69.08;100217.91;5099782;28;20043;-67
2023/01/08 02:54:56;;;;;;;3.30;0.93;;;;;;;11.39;68.91;100215.22;5116612;28;20401;-70
2023/01/08 02:57:28;;;;;;;2.05;0.80;;;;;;;11.37;69.08;100211.94;5110608;28;20641;-69
2023/01/08 02:59:57;;;;;;;5.07;1.30;;;;;;;11.37;69.24;100203.06;5094130;28;20048;-69
2023/01/08 03:02:28;;;;;;;3.70;1.13;;;;;;;11.36;69.02;100196.88;5100392;28;20048;-69
2023/01/08 03:05:03;;;;;;;2.60;1.13;;;;;;;11.35;69.05;100206.00;5095541;28;20063;-69
2023/01/08 03:07:31;;;;;;;3.05;0.90;;;;;;;11.34;68.96;100212.44;5104105;28;20159;-69
2023/01/08 03:09:59;;;;;;;2.38;0.90;;;;;;;11.34;68.88;100209.75;5106453;28;20044;-68
2023/01/08 03:12:40;;;;;;;3.80;1.00;;;;;;;11.33;69.18;100207.28;5103868;28;20051;-69
2023/01/08 03:15:11;;;;;;;1.90;0.93;;;;;;;11.32;68.94;100200.28;5104558;28;20127;-69
2023/01/08 03:17:45;;;;;;;5.70;1.73;;;;;;;11.31;68.97;100195.97;5100287;28;20044;-70
2023/01/08 03:20:16;;;;;;;1.90;0.80;;;;;;;11.30;68.65;100192.47;5107759;28;20048;-68
2023/01/08 03:22:47;;;;;;;1.83;0.82;;;;;;;11.30;68.86;100192.47;5103048;28;20079;-70
2023/01/08 03:25:18;;;;;;;4.57;1.17;;;;;;;11.29;69.03;100192.69;5103483;28;20143;-70
2023/01/08 03:27:51;;;;;;;2.33;0.75;;;;;;;11.29;69.00;100190.00;5100399;28;20040;-70
2023/01/08 03:30:20;;;;;;;3.45;0.95;;;;;;;11.27;69.09;100192.94;5109394;28;20520;-69
2023/01/08 03:32:51;;;;;;;3.13;0.85;;;;;;;11.27;69.10;100184.06;5110424;28;20107;-69
2023/01/08 03:35:22;;;;;;;2.92;1.02;;;;;;;11.26;69.13;100185.94;5111852;28;20082;-70
2023/01/08 03:37:56;;;;;;;4.50;1.02;;;;;;;11.21;68.90;100176.94;5108917;28;20051;-69
2023/01/08 03:40:29;;;;;;;4.18;0.93;;;;;;;11.25;68.98;100181.59;5106945;28;20039;-69
2023/01/08 03:42:58;;;;;;;3.03;1.20;;;;;;;11.25;68.98;100183.47;5101436;28;20043;-69
2023/01/08 03:45:29;;;;;;;4.20;1.10;;;;;;;11.25;68.91;100183.47;5108106;28;20048;-69
2023/01/08 03:48:01;;;;;;;2.75;1.00;;;;;;;11.24;68.81;100182.66;5106963;28;20044;-70
2023/01/08 03:50:31;;;;;;;2.60;1.15;;;;;;;11.25;68.92;100183.47;5105859;28;20146;-69
2023/01/08 03:52:59;;;;;;;3.05;1.50;;;;;;;11.23;68.83;100186.41;5107075;28;20456;-69
2023/01/08 03:55:27;;;;;;;3.83;0.90;;;;;;;11.23;68.79;100174.84;5100678;28;20055;-69
2023/01/08 03:57:55;;;;;;;2.75;0.93;;;;;;;11.23;68.81;100177.53;5105014;28;20108;-69
2023/01/08 04:00:25;;;;;;;4.47;1.52;;;;;;;11.23;69.08;100180.22;5100174;28;20103;-69
2023/01/08 04:02:52;;;;;;;6.20;1.35;;;;;;;11.22;69.03;100168.66;5115612;28;20044;-70
2023/01/08 04:05:20;;;;;;;4.32;1.00;;;;;;;11.22;68.94;100168.66;5108488;28;20074;-70
2023/01/08 04:07:48;;;;;;;1.75;0.80;;;;;;;11.22;69.06;100175.91;5108543;28;20071;-69
2023/01/08 04:10:16;;;;;;;2.20;1.00;;;;;;;11.22;69.14;100174.03;5105249;28;20083;-69
2023/01/08 04:12:44;;;;;;;3.40;1.05;;;;;;;11.21;69.01;100166.19;5107832;28;20043;-69
2023/01/08 04:15:11;;;;;;;2.38;1.10;;;;;;;11.21;68.94;100171.56;5108095;28;20492;-65
2023/01/08 04:17:41;;;;;;;4.30;1.40;;;;;;;11.20;69.04;100162.69;5107990;28;20107;-68
2023/01/08 04:20:09;;;;;;;3.28;0.90;;;;;;;11.20;68.98;100157.31;5108964;28;20058;-69
2023/01/08 04:22:37;;;;;;;3.70;1.08;;;;;;;11.20;68.90;100168.06;5112861;28;20165;-69
2023/01/08 04:25:05;;;;;;;1.77;0.90;;;;;;;11.19;69.11;100179.06;5106898;28;20239;-69
2023/01/08 04:27:33;;;;;;;3.88;1.23;;;;;;;11.19;68.86;100154.88;5111057;28;20062;-67
2023/01/08 04:30:01;;;;;;;4.75;1.38;;;;;;;11.19;68.88;100146.78;5104287;28;20048;-70
2023/01/08 04:32:29;;;;;;;3.58;1.23;;;;;;;11.19;68.91;100146.78;5115262;28;20130;-69
2023/01/08 04:34:58;;;;;;;3.33;1.15;;;;;;;11.18;68.78;100145.16;5106343;28;20066;-68
2023/01/08 04:37:26;;;;;;;3.38;1.33;;;;;;;11.16;69.08;100141.91;5104076;28;20109;-68
2023/01/08 04:39:54;;;;;;;3.00;0.95;;;;;;;11.15;69.10;100142.97;5114995;28;20134;-66
2023/01/08 04:42:21;;;;;;;5.63;1.65;;;;;;;11.14;68.94;100147.53;5105805;28;20105;-70
2023/01/08 04:44:49;;;;;;;2.35;0.98;;;;;;;11.13;68.98;100148.59;5105994;28;20052;-70
2023/01/08 04:47:17;;;;;;;2.88;1.10;;;;;;;11.12;68.94;100146.94;5102760;28;20097;-70
2023/01/08 04:49:45;;;;;;;3.80;1.30;;;;;;;11.12;69.02;100152.31;5105748;28;20048;-70
2023/01/08 04:52:14;;;;;;;2.75;0.90;;;;;;;11.11;68.90;100149.88;5104280;28;20052;-69
2023/01/08 04:54:42;;;;;;;3.47;1.10;;;;;;;11.09;69.00;100147.44;5105164;28;20044;-70
2023/01/08 04:57:09;;;;;;;3.53;1.30;;;;;;;11.08;69.03;100146.63;5108936;28;20489;-70
2023/01/08 04:59:37;;;;;;;3.85;1.20;;;;;;;11.09;68.99;100155.50;5102668;28;20131;-70
2023/01/08 05:02:06;;;;;;;5.07;1.30;;;;;;;11.07;68.99;100150.38;5106175;28;20048;-69
2023/01/08 05:04:34;;;;;;;2.70;1.13;;;;;;;11.07;69.00;100153.06;5105633;28;20055;-69
2023/01/08 05:07:01;;;;;;;3.45;1.30;;;;;;;11.06;68.98;100151.44;5102590;28;20107;-70
2023/01/08 05:09:31;;;;;;;2.50;0.80;;;;;;;11.06;68.88;100145.22;5105804;28;20045;-69
2023/01/08 05:11:59;;;;;;;2.92;1.15;;;;;;;11.06;68.97;100154.13;5096996;28;20284;-69
2023/01/08 05:14:26;;;;;;;1.50;0.82;;;;;;;11.05;68.95;100152.47;5108744;28;20130;-69
2023/01/08 05:16:54;;;;;;;4.03;1.10;;;;;;;11.04;69.26;100150.84;5093478;28;20059;-70
2023/01/08 05:19:22;;;;;;;1.95;1.10;;;;;;;11.03;69.07;100143.84;5099067;28;20064;-69
2023/01/08 05:21:50;;;;;;;1.80;1.00;;;;;;;11.03;68.97;100135.78;5116293;28;20127;-69
2023/01/08 05:24:18;;;;;;;1.50;0.93;;;;;;;11.04;69.13;100141.97;5105019;28;20078;-69
2023/01/08 05:26:47;;;;;;;2.05;1.05;;;;;;;11.04;69.13;100145.47;5105072;28;20059;-69
2023/01/08 05:29:15;;;;;;;5.07;1.75;;;;;;;11.03;69.03;100132.28;5098189;28;20098;-68
2023/01/08 05:31:43;;;;;;;1.73;0.88;;;;;;;11.03;68.92;100124.19;5105767;28;20063;-70
2023/01/08 05:34:11;;;;;;;4.97;1.05;;;;;;;11.03;68.87;100126.88;5113979;28;20111;-69
2023/01/08 05:36:39;;;;;;;5.05;1.00;;;;;;;11.02;68.92;100119.88;5104903;28;20063;-67
2023/01/08 05:39:07;;;;;;;3.45;2.22;;;;;;;11.02;68.70;100099.19;5102359;28;20079;-69
2023/01/08 05:41:35;;;;;;;3.53;1.15;;;;;;;11.03;68.64;100106.19;5109949;28;20068;-69
2023/01/08 05:44:04;;;;;;;4.47;1.45;;;;;;;11.01;68.57;100116.38;5106370;28;20052;-69
2023/01/08 05:46:32;;;;;;;2.42;1.23;;;;;;;11.01;68.45;100113.69;5104232;28;20505;-69
2023/01/08 05:49:00;;;;;;;3.40;1.20;;;;;;;11.02;68.83;100123.38;5109296;28;20054;-69
2023/01/08 05:51:28;;;;;;;2.72;1.00;;;;;;;11.01;68.57;100120.94;5107121;28;20051;-69
2023/01/08 05:53:56;;;;;;;2.00;0.90;;;;;;;11.00;68.35;100120.13;5102513;28;20048;-67
2023/01/08 05:56:24;;;;;;;2.17;0.95;;;;;;;11.00;68.27;100119.31;5097611;28;20066;-69
2023/01/08 05:58:53;;;;;;;2.70;1.00;;;;;;;10.99;68.38;100123.88;5103780;28;20066;-69
2023/01/08 06:01:23;;;;;;;2.03;1.17;;;;;;;10.97;68.19;100125.97;5107456;28;20067;-69
2023/01/08 06:03:50;;;;;;;6.28;1.10;;;;;;;10.97;68.27;100117.09;4751267;28;10001051;-69
2023/01/08 06:06:18;;;;;;;3.00;1.20;;;;;;;10.95;68.33;100133.47;5102734;28;20107;-69
2023/01/08 06:08:46;;;;;;;4.80;1.63;;;;;;;10.95;68.25;100135.34;5098378;28;20071;-69
2023/01/08 06:11:14;;;;;;;3.45;1.17;;;;;;;10.94;68.17;100149.84;5091255;28;20078;-67
2023/01/08 06:13:43;;;;;;;1.25;0.75;;;;;;;10.92;68.21;100158.16;5098755;28;20342;-69
2023/01/08 06:16:12;;;;;;;2.85;1.27;;;;;;;10.91;68.18;100161.91;5093147;28;20052;-69
2023/01/08 06:18:41;;;;;;;5.13;1.25;;;;;;;10.89;68.20;100163.19;5099814;28;20048;-67
2023/01/08 06:21:11;;;;;;;4.53;1.20;;;;;;;10.87;68.00;100160.75;5099575;28;20060;-69
2023/01/08 06:23:39;;;;;;;3.22;1.27;;;;;;;10.85;68.26;100152.09;5097435;28;20139;-69
2023/01/08 06:26:07;;;;;;;2.60;1.00;;;;;;;10.85;68.00;100151.28;5099480;28;20052;-70
2023/01/08 06:28:35;;;;;;;1.20;0.75;;;;;;;10.85;68.04;100151.28;5094520;28;20052;-70
2023/01/08 06:31:03;;;;;;;5.43;1.15;;;;;;;10.84;67.99;100161.22;5099104;28;20496;-71
2023/01/08 06:33:32;;;;;;;3.10;0.90;;;;;;;10.85;68.01;100159.34;5099140;28;20052;-69
2023/01/08 06:36:03;;;;;;;2.80;1.10;;;;;;;10.84;67.88;100165.78;5099343;28;20531;-70
2023/01/08 06:38:32;;;;;;;2.03;0.77;;;;;;;10.83;67.95;100161.47;5099734;28;20442;-71
2023/01/08 06:41:03;;;;;;;6.15;1.77;;;;;;;10.81;67.89;100164.41;5101023;28;20365;-71
2023/01/08 06:43:31;;;;;;;1.73;0.82;;;;;;;10.77;67.76;100164.06;5096785;28;20051;-70
2023/01/08 06:46:03;;;;;;;2.88;1.13;;;;;;;10.79;67.65;100160.31;5103794;28;20058;-69
2023/01/08 06:48:31;;;;;;;4.53;0.80;;;;;;;10.76;67.65;100169.69;5103277;28;20543;-70
2023/01/08 06:51:00;;;;;;;6.22;1.45;;;;;;;10.76;67.58;100167.00;5109150;28;20052;-69
2023/01/08 06:53:29;;;;;;;2.33;0.90;;;;;;;10.77;67.70;100174.00;5102088;28;20120;-70
2023/01/08 06:55:57;;;;;;;5.72;1.33;;;;;;;10.75;67.72;100170.72;5099930;28;20059;-68
2023/01/08 06:58:27;;;;;;;3.20;0.90;;;;;;;10.66;67.51;100164.91;5102581;28;20055;-68
2023/01/08 07:00:57;;;;;;;4.88;1.23;;;;;;;10.74;67.56;100171.78;5098633;28;20175;-69
2023/01/08 07:03:25;;;;;;;3.05;0.93;;;;;;;10.74;67.51;100175.28;5110324;28;20040;-68
2023/01/08 07:05:53;;;;;;;3.50;1.15;;;;;;;10.71;67.44;100175.75;5102401;28;20044;-67
2023/01/08 07:08:21;;;;;;;3.78;1.13;;;;;;;10.70;67.54;100178.69;5103223;28;20072;-68
2023/01/08 07:10:50;;;;;;;5.40;1.17;;;;;;;10.70;67.51;100176.81;5103118;28;20044;-67
2023/01/08 07:13:18;;;;;;;5.75;2.42;;;;;;;10.68;67.44;100178.13;5108210;28;20116;-67
2023/01/08 07:15:46;;;;;;;6.20;1.35;;;;;;;10.68;67.39;100162.81;5093893;28;20055;-66
2023/01/08 07:18:13;;;;;;;6.07;1.30;;;;;;;10.68;67.49;100165.50;5102180;28;20048;-65
2023/01/08 07:20:42;;;;;;;5.80;1.63;;;;;;;10.67;67.24;100165.75;5102848;28;20048;-67
2023/01/08 07:23:11;;;;;;;4.50;1.13;;;;;;;10.66;67.21;100172.16;5102381;28;20457;-66
2023/01/08 07:25:39;;;;;;;3.58;1.13;;;;;;;10.66;67.25;100172.16;5104803;28;20051;-68
2023/01/08 07:28:11;;;;;;;6.88;2.35;;;;;;;10.66;67.13;100166.78;5098700;28;20052;-70
2023/01/08 07:30:39;;;;;;;6.15;1.60;;;;;;;10.65;67.30;100170.53;5104106;28;20472;-69
2023/01/08 07:33:07;;;;;;;4.95;1.40;;;;;;;10.58;67.33;100162.59;5101597;28;20052;-68
2023/01/08 07:35:37;;;;;;;4.63;1.20;;;;;;;10.53;67.16;100156.31;5105864;28;20107;-67
2023/01/08 07:38:05;;;;;;;3.38;1.10;;;;;;;10.65;67.27;100174.03;5102468;28;20074;-68
2023/01/08 07:40:33;;;;;;;2.08;1.05;;;;;;;10.72;66.81;100173.91;5104874;28;20131;-67
2023/01/08 07:43:03;;;;;;;7.80;1.38;;;;;;;10.85;66.33;100175.47;5102400;28;20076;-70
2023/01/08 07:45:32;;;;;;;4.57;1.30;;;;;;;10.99;65.91;100174.97;5099381;28;20151;-66
2023/01/08 07:48:00;;;;;;;5.82;1.25;;;;;;;11.16;65.35;100158.84;5101783;28;20139;-67
2023/01/08 07:50:28;;;;;;;3.22;1.40;;;;;;;11.36;64.71;100169.16;5104575;28;20060;-68
2023/01/08 07:52:57;;;;;;;4.15;1.00;;;;;;;11.49;63.94;100158.06;5101090;28;20111;-72
2023/01/08 07:55:25;;;;;;;4.72;1.60;;;;;;;11.51;63.79;100157.81;5100771;28;20055;-73
2023/01/08 07:57:53;;;;;;;4.28;1.70;;;;;;;11.48;63.63;100150.25;5095333;28;20071;-67
2023/01/08 08:00:22;;;;;;;5.72;1.17;;;;;;;11.39;64.02;100153.34;5097458;28;20083;-68
2023/01/08 08:02:51;;;;;;;3.72;1.10;;;;;;;11.34;63.95;100147.88;5102297;28;20047;-71
2023/01/08 08:05:19;;;;;;;3.42;1.00;;;;;;;11.43;63.98;100145.59;5099638;28;20081;-67
2023/01/08 08:07:47;;;;;;;5.88;1.38;;;;;;;11.53;63.65;100131.47;5105949;28;20098;-69
2023/01/08 08:10:15;;;;;;;4.28;1.17;;;;;;;11.69;63.16;100136.03;5113418;28;20054;-71
2023/01/08 08:12:44;;;;;;;4.70;0.93;;;;;;;11.71;62.84;100140.13;5103863;28;20067;-71
2023/01/08 08:15:12;;;;;;;3.50;1.30;;;;;;;11.65;63.06;100135.72;5105389;28;20075;-71
2023/01/08 08:17:40;;;;;;;4.20;1.40;;;;;;;11.56;63.20;100125.59;5105905;28;20052;-67
2023/01/08 08:20:10;;;;;;;2.53;1.23;;;;;;;11.45;63.78;100127.31;5115061;28;20107;-70
2023/01/08 08:22:38;;;;;;;4.60;1.33;;;;;;;11.33;64.34;100115.81;5104428;28;20587;-69
2023/01/08 08:25:07;;;;;;;4.22;1.00;;;;;;;11.24;64.79;100109.22;5106589;28;20108;-70
2023/01/08 08:27:34;;;;;;;5.70;1.65;;;;;;;11.16;64.57;100107.75;5106028;28;20417;-70
2023/01/08 08:30:09;;;;;;;4.44;1.70;;;;;;;11.09;64.98;100115.97;4937440;28;10000665;-66
2023/01/08 08:32:37;;;;;;;4.22;1.88;;;;;;;11.03;65.36;100122.31;4747841;28;10000187;-70
2023/01/08 08:35:06;;;;;;;4.78;1.40;;;;;;;10.99;65.44;100123.88;5099460;28;20071;-70
2023/01/08 08:37:35;;;;;;;6.35;1.27;;;;;;;10.95;65.46;100127.28;5100707;28;20086;-68
2023/01/08 08:40:04;;;;;;;4.55;1.65;;;;;;;10.92;65.60;100125.91;5094766;28;20072;-71
2023/01/08 08:42:31;;;;;;;3.33;0.90;;;;;;;10.89;65.82;100120.19;5100448;28;20052;-64
2023/01/08 08:44:59;;;;;;;7.65;1.58;;;;;;;10.88;65.86;100129.31;5097099;28;20579;-70
2023/01/08 08:47:27;;;;;;;5.93;1.52;;;;;;;10.85;65.95;100119.84;5095712;28;20493;-66
2023/01/08 08:49:55;;;;;;;5.20;1.17;;;;;;;10.84;65.93;100128.16;5099916;28;20059;-72
2023/01/08 08:52:23;;;;;;;3.85;1.50;;;;;;;10.82;66.04;100114.97;5097133;28;20052;-71
2023/01/08 08:54:52;;;;;;;5.88;1.35;;;;;;;10.78;66.42;100108.44;5099600;28;20047;-69
2023/01/08 08:57:20;;;;;;;7.68;1.98;;;;;;;10.78;66.28;100111.13;5095312;28;20111;-68
2023/01/08 08:59:47;;;;;;;3.80;1.48;;;;;;;10.75;66.55;100117.78;5099721;28;20071;-67
2023/01/08 09:02:15;;;;;;;4.60;1.30;;;;;;;10.75;66.37;100122.34;5097991;28;20071;-66
2023/01/08 09:04:43;;;;;;;5.30;1.10;;;;;;;10.74;66.50;100113.47;5100806;28;20048;-65
2023/01/08 09:07:11;;;;;;;6.60;1.45;;;;;;;10.74;66.93;100113.47;5099285;28;20148;-66
2023/01/08 09:09:39;;;;;;;7.22;1.70;;;;;;;10.78;67.41;100111.13;5099283;28;20167;-67
2023/01/08 09:12:09;;;;;;;4.68;1.27;;;;;;;10.74;66.76;100105.41;5094581;28;20534;-70
2023/01/08 09:14:37;;;;;;;4.20;1.27;;;;;;;10.75;66.51;100108.91;5099527;28;20043;-69
2023/01/08 09:17:05;;;;;;;4.65;1.27;;;;;;;10.74;66.99;100102.72;5101654;28;20055;-69
2023/01/08 09:19:33;;;;;;;6.05;1.75;;;;;;;10.71;66.55;100103.22;5098270;28;20504;-70
2023/01/08 09:22:01;;;;;;;4.07;1.48;;;;;;;10.75;66.82;100098.16;5101044;28;20055;-70
2023/01/08 09:24:31;;;;;;;7.40;1.42;;;;;;;10.71;66.68;100097.84;5099600;28;20054;-69
2023/01/08 09:26:59;;;;;;;5.28;1.35;;;;;;;10.71;67.34;100088.94;5098196;28;20127;-69
2023/01/08 09:29:28;;;;;;;4.60;1.40;;;;;;;10.68;66.89;100086.75;5090090;28;20104;-67
2023/01/08 09:31:59;;;;;;;3.10;1.15;;;;;;;10.69;67.04;100083.81;5099208;28;20047;-67
2023/01/08 09:34:26;;;;;;;6.68;1.38;;;;;;;10.68;66.84;100081.38;5101659;28;20083;-68
2023/01/08 09:36:54;;;;;;;7.40;2.33;;;;;;;10.69;67.22;100086.50;5094852;28;20174;-70
2023/01/08 09:39:22;;;;;;;5.15;1.05;;;;;;;10.69;67.36;100080.31;5096212;28;20075;-70
2023/01/08 09:41:51;;;;;;;4.05;1.20;;;;;;;10.68;67.32;100076.00;5098187;28;20607;-67
2023/01/08 09:44:26;;;;;;;8.65;1.50;;;;;;;10.65;67.26;100074.59;5084163;28;20052;-67
2023/01/08 09:46:56;;;;;;;9.02;1.52;;;;;;;10.64;67.71;100078.34;5096991;28;20044;-70
2023/01/08 09:49:28;;;;;;;5.13;1.58;;;;;;;10.67;67.40;100085.13;5094996;28;20070;-70
2023/01/08 09:51:56;;;;;;;7.80;1.45;;;;;;;10.65;67.57;100071.09;5095434;28;20048;-68
2023/01/08 09:54:26;;;;;;;4.85;1.35;;;;;;;10.66;67.80;100081.63;5095836;28;20079;-70
2023/01/08 09:56:54;;;;;;;7.97;1.63;;;;;;;10.64;67.62;100069.47;5091823;28;20056;-70
2023/01/08 09:59:22;;;;;;;5.20;1.63;;;;;;;10.61;67.78;100073.47;5091692;28;20493;-70
2023/01/08 10:01:52;;;;;;;8.13;2.03;;;;;;;10.59;67.79;100067.50;5096737;28;20090;-70
2023/01/08 10:04:23;;;;;;;5.50;2.15;;;;;;;10.63;68.19;100062.47;5090056;28;20108;-68
2023/01/08 10:06:54;;;;;;;6.68;2.25;;;;;;;10.67;67.37;100059.06;5091392;28;20471;-70
2023/01/08 10:09:26;;;;;;;6.05;1.73;;;;;;;10.66;68.50;100056.63;5099651;28;20043;-70
2023/01/08 10:11:56;;;;;;;4.97;1.33;;;;;;;10.64;67.74;100056.84;5099314;28;20079;-70
2023/01/08 10:14:28;;;;;;;5.32;1.35;;;;;;;10.73;67.71;100038.47;5107212;28;20051;-69
2023/01/08 10:16:58;;;;;;;4.82;1.25;;;;;;;10.76;67.47;100054.91;5105540;28;20044;-72
2023/01/08 10:19:28;;;;;;;4.18;1.80;;;;;;;10.74;68.18;100058.91;5104696;28;20048;-72
2023/01/08 10:21:57;;;;;;;7.10;1.90;;;;;;;10.75;67.89;100060.53;5103823;28;20063;-66
2023/01/08 10:24:33;;;;;;;5.50;1.35;;;;;;;10.86;68.31;100051.59;5102956;28;20641;-68
2023/01/08 10:27:09;;;;;;;3.58;1.23;;;;;;;10.78;68.29;100054.69;5107583;28;20052;-71
2023/01/08 10:29:38;;;;;;;4.40;1.13;;;;;;;10.76;68.09;100049.53;5102609;28;20055;-70
2023/01/08 10:32:12;;;;;;;4.72;1.20;;;;;;;10.79;68.95;100045.56;5095541;28;20470;-68
2023/01/08 10:34:45;;;;;;;4.38;1.50;;;;;;;10.75;67.99;100050.59;5107404;28;20051;-71
2023/01/08 10:37:16;;;;;;;3.55;0.93;;;;;;;10.75;68.23;100047.91;5101313;28;20131;-68
2023/01/08 10:39:47;;;;;;;4.53;1.02;;;;;;;10.73;68.31;100035.78;5106278;28;20048;-67
2023/01/08 10:42:17;;;;;;;3.80;1.30;;;;;;;10.73;68.29;100033.09;5101750;28;20052;-65
2023/01/08 10:44:55;;;;;;;6.00;1.45;;;;;;;10.71;68.40;100029.81;5105340;28;20097;-70
2023/01/08 10:47:25;;;;;;;3.60;1.00;;;;;;;10.69;68.44;100030.06;5109322;28;20043;-71
2023/01/08 10:49:56;;;;;;;4.78;1.02;;;;;;;10.69;68.34;100022.00;5102162;28;20130;-68
2023/01/08 10:52:31;;;;;;;4.45;0.93;;;;;;;10.71;68.74;100022.59;5094610;28;20083;-72
2023/01/08 10:55:12;;;;;;;2.38;0.98;;;;;;;10.88;68.36;100022.59;5092769;28;20044;-71
2023/01/08 10:57:42;;;;;;;2.95;0.85;;;;;;;10.69;68.52;99997.81;5095759;28;20054;-71
2023/01/08 11:00:24;;;;;;;2.97;1.10;;;;;;;10.78;68.77;100003.63;5099191;28;20044;-73
2023/01/08 11:02:52;;;;;;;2.30;1.20;;;;;;;10.81;69.00;99997.75;5098166;28;20047;-73
2023/01/08 11:05:30;;;;;;;5.57;0.70;;;;;;;10.84;68.40;100004.50;5102299;28;20151;-73
2023/01/08 11:08:00;;;;;;;1.50;0.98;;;;;;;10.85;68.68;99993.50;5098046;28;20044;-71
2023/01/08 11:10:29;;;;;;;2.63;0.73;;;;;;;10.84;68.25;99997.25;5103713;28;20051;-74
2023/01/08 11:13:00;;;;;;;2.67;0.90;;;;;;;10.83;68.85;99992.94;5103569;28;20127;-71
2023/01/08 11:15:39;;;;;;;3.88;0.82;;;;;;;10.86;69.14;99983.56;5099613;28;20040;-73
2023/01/08 11:18:16;;;;;;;4.32;1.00;;;;;;;10.85;68.54;99990.81;5105170;28;20054;-71
2023/01/08 11:20:46;;;;;;;3.42;1.17;;;;;;;11.02;67.98;99980.06;5103702;28;20047;-70
2023/01/08 11:23:20;;;;;;;2.00;0.90;;;;;;;10.99;68.52;99976.00;5103823;28;20083;-72
2023/01/08 11:25:54;;;;;;;3.72;1.67;;;;;;;10.90;68.55;99977.47;5100672;28;20072;-73
2023/01/08 11:28:29;;;;;;;1.38;0.68;;;;;;;10.88;68.47;99970.72;5119555;28;20050;-66
2023/01/08 11:31:06;;;;;;;0.80;0.60;;;;;;;10.90;69.23;99957.84;5102089;28;20144;-73
2023/01/08 11:33:38;;;;;;;2.70;1.00;;;;;;;10.96;68.61;99962.22;5104889;28;20067;-73
2023/01/08 11:36:17;;;;;;;1.75;0.80;;;;;;;11.01;68.73;99957.75;5107686;28;20095;-74